sensor_id;sensor_type;location;lat;lon;timestamp;P1;durP1;ratioP1;P2;durP2;ratioP2
21814;SDS011;11069;48.988;8.450;2024-03-23T00:54:41;12.98;;;10.63;;
21814;SDS011;11069;48.988;8.450;2024-03-23T00:57:07;16.10;;;10.38;;
21814;SDS011;11069;48.988;8.450;2024-03-23T00:59:32;14.52;;;10.70;;
21814;SDS011;11069;48.988;8.450;2024-03-23T01:01:58;11.48;;;10.02;;
21814;SDS011;11069;48.988;8.450;2024-03-23T01:04:24;12.88;;;9.68;;
21814;SDS011;11069;48.988;8.450;2024-03-23T01:06:49;16.65;;;10.23;;
21814;SDS011;11069;48.988;8.450;2024-03-23T01:09:15;10.85;;;9.05;;
21814;SDS011;11069;48.988;8.450;2024-03-23T01:11:40;13.77;;;9.85;;
21814;SDS011;11069;48.988;8.450;2024-03-23T01:14:06;16.38;;;9.00;;
21814;SDS011;11069;48.988;8.450;2024-03-23T01:16:32;11.68;;;9.27;;
21814;SDS011;11069;48.988;8.450;2024-03-23T01:18:57;10.50;;;9.40;;
21814;SDS011;11069;48.988;8.450;2024-03-23T01:21:23;11.80;;;8.95;;
21814;SDS011;11069;48.988;8.450;2024-03-23T01:23:49;11.30;;;9.07;;
21814;SDS011;11069;48.988;8.450;2024-03-23T01:26:14;10.20;;;8.80;;
21814;SDS011;11069;48.988;8.450;2024-03-23T01:28:40;11.63;;;9.23;;
21814;SDS011;11069;48.988;8.450;2024-03-23T01:31:06;9.98;;;8.95;;
21814;SDS011;11069;48.988;8.450;2024-03-23T01:33:31;10.73;;;9.05;;
21814;SDS011;11069;48.988;8.450;2024-03-23T01:35:57;13.40;;;9.10;;
21814;SDS011;11069;48.988;8.450;2024-03-23T01:38:22;13.55;;;9.68;;
21814;SDS011;11069;48.988;8.450;2024-03-23T01:40:48;12.02;;;8.98;;
21814;SDS011;11069;48.988;8.450;2024-03-23T01:43:15;9.18;;;8.20;;
21814;SDS011;11069;48.988;8.450;2024-03-23T01:45:40;10.95;;;7.70;;
21814;SDS011;11069;48.988;8.450;2024-03-23T01:48:06;9.63;;;7.50;;
21814;SDS011;11069;48.988;8.450;2024-03-23T01:50:32;11.57;;;6.82;;
21814;SDS011;11069;48.988;8.450;2024-03-23T01:52:59;7.53;;;6.05;;
21814;SDS011;11069;48.988;8.450;2024-03-23T01:55:27;7.07;;;5.30;;
21814;SDS011;11069;48.988;8.450;2024-03-23T01:57:53;10.18;;;6.88;;
21814;SDS011;11069;48.988;8.450;2024-03-23T02:00:21;10.85;;;5.75;;
21814;SDS011;11069;48.988;8.450;2024-03-23T02:02:48;7.20;;;5.07;;
21814;SDS011;11069;48.988;8.450;2024-03-23T02:05:13;6.07;;;4.72;;
21814;SDS011;11069;48.988;8.450;2024-03-23T02:07:40;9.63;;;4.88;;
21814;SDS011;11069;48.988;8.450;2024-03-23T02:10:06;7.78;;;4.78;;
21814;SDS011;11069;48.988;8.450;2024-03-23T02:12:32;7.60;;;4.55;;
21814;SDS011;11069;48.988;8.450;2024-03-23T02:14:58;7.13;;;4.57;;
21814;SDS011;11069;48.988;8.450;2024-03-23T02:17:24;7.05;;;4.00;;
21814;SDS011;11069;48.988;8.450;2024-03-23T02:19:50;6.28;;;4.43;;
21814;SDS011;11069;48.988;8.450;2024-03-23T02:22:15;4.88;;;4.10;;
21814;SDS011;11069;48.988;8.450;2024-03-23T02:24:41;6.40;;;4.22;;
21814;SDS011;11069;48.988;8.450;2024-03-23T02:27:07;5.35;;;3.67;;
21814;SDS011;11069;48.988;8.450;2024-03-23T02:29:33;5.13;;;3.95;;
21814;SDS011;11069;48.988;8.450;2024-03-23T02:31:58;6.53;;;4.22;;
21814;SDS011;11069;48.988;8.450;2024-03-23T02:34:24;6.15;;;3.83;;
21814;SDS011;11069;48.988;8.450;2024-03-23T02:36:50;4.38;;;3.70;;
21814;SDS011;11069;48.988;8.450;2024-03-23T02:39:15;5.95;;;4.00;;
21814;SDS011;11069;48.988;8.450;2024-03-23T02:41:41;6.90;;;3.92;;
21814;SDS011;11069;48.988;8.450;2024-03-23T02:44:06;7.00;;;4.03;;
21814;SDS011;11069;48.988;8.450;2024-03-23T02:46:33;5.28;;;3.70;;
21814;SDS011;11069;48.988;8.450;2024-03-23T02:48:58;6.07;;;3.60;;
21814;SDS011;11069;48.988;8.450;2024-03-23T02:51:24;6.25;;;3.90;;
21814;SDS011;11069;48.988;8.450;2024-03-23T02:53:49;4.82;;;3.65;;
21814;SDS011;11069;48.988;8.450;2024-03-23T02:56:15;6.60;;;3.50;;
21814;SDS011;11069;48.988;8.450;2024-03-23T02:58:42;6.05;;;3.67;;
21814;SDS011;11069;48.988;8.450;2024-03-23T03:01:08;4.82;;;4.03;;
21814;SDS011;11069;48.988;8.450;2024-03-23T03:03:33;5.90;;;3.45;;
21814;SDS011;11069;48.988;8.450;2024-03-23T03:05:59;4.57;;;3.83;;
21814;SDS011;11069;48.988;8.450;2024-03-23T03:08:25;8.20;;;4.40;;
21814;SDS011;11069;48.988;8.450;2024-03-23T03:10:50;5.10;;;4.32;;
21814;SDS011;11069;48.988;8.450;2024-03-23T03:13:16;6.28;;;3.92;;
21814;SDS011;11069;48.988;8.450;2024-03-23T03:15:42;7.30;;;4.45;;
21814;SDS011;11069;48.988;8.450;2024-03-23T03:18:08;6.13;;;4.38;;
21814;SDS011;11069;48.988;8.450;2024-03-23T03:20:36;6.28;;;4.80;;
21814;SDS011;11069;48.988;8.450;2024-03-23T03:23:05;8.02;;;5.00;;
21814;SDS011;11069;48.988;8.450;2024-03-23T03:25:31;7.03;;;5.00;;
21814;SDS011;11069;48.988;8.450;2024-03-23T03:27:57;9.00;;;5.72;;
21814;SDS011;11069;48.988;8.450;2024-03-23T03:30:23;7.63;;;5.18;;
21814;SDS011;11069;48.988;8.450;2024-03-23T03:32:49;8.52;;;5.88;;
21814;SDS011;11069;48.988;8.450;2024-03-23T03:35:14;10.02;;;6.43;;
21814;SDS011;11069;48.988;8.450;2024-03-23T03:37:40;10.63;;;6.45;;
21814;SDS011;11069;48.988;8.450;2024-03-23T03:40:06;8.02;;;6.47;;
21814;SDS011;11069;48.988;8.450;2024-03-23T03:42:33;10.75;;;7.95;;
21814;SDS011;11069;48.988;8.450;2024-03-23T03:44:59;10.93;;;8.10;;
21814;SDS011;11069;48.988;8.450;2024-03-23T03:47:25;12.77;;;8.50;;
21814;SDS011;11069;48.988;8.450;2024-03-23T03:49:50;12.00;;;8.70;;
21814;SDS011;11069;48.988;8.450;2024-03-23T03:52:16;12.10;;;9.77;;
21814;SDS011;11069;48.988;8.450;2024-03-23T03:54:41;13.18;;;10.00;;
21814;SDS011;11069;48.988;8.450;2024-03-23T03:57:07;15.93;;;11.00;;
21814;SDS011;11069;48.988;8.450;2024-03-23T03:59:32;14.18;;;10.57;;
21814;SDS011;11069;48.988;8.450;2024-03-23T04:01:58;14.40;;;10.70;;
21814;SDS011;11069;48.988;8.450;2024-03-23T04:04:24;13.95;;;11.77;;
21814;SDS011;11069;48.988;8.450;2024-03-23T04:06:49;15.00;;;11.57;;
21814;SDS011;11069;48.988;8.450;2024-03-23T04:09:15;14.32;;;11.20;;
21814;SDS011;11069;48.988;8.450;2024-03-23T04:11:40;15.65;;;11.60;;
21814;SDS011;11069;48.988;8.450;2024-03-23T04:14:06;17.42;;;11.93;;
21814;SDS011;11069;48.988;8.450;2024-03-23T04:16:34;14.48;;;11.98;;
21814;SDS011;11069;48.988;8.450;2024-03-23T04:19:00;18.33;;;12.70;;
21814;SDS011;11069;48.988;8.450;2024-03-23T04:21:30;13.70;;;11.30;;
21814;SDS011;11069;48.988;8.450;2024-03-23T04:23:56;15.18;;;11.48;;
21814;SDS011;11069;48.988;8.450;2024-03-23T04:26:22;15.70;;;11.85;;
21814;SDS011;11069;48.988;8.450;2024-03-23T04:28:47;15.77;;;11.75;;
21814;SDS011;11069;48.988;8.450;2024-03-23T04:31:13;15.80;;;11.93;;
21814;SDS011;11069;48.988;8.450;2024-03-23T04:33:38;14.68;;;11.93;;
21814;SDS011;11069;48.988;8.450;2024-03-23T04:36:04;14.93;;;11.73;;
21814;SDS011;11069;48.988;8.450;2024-03-23T04:38:30;13.82;;;11.60;;
21814;SDS011;11069;48.988;8.450;2024-03-23T04:40:56;16.00;;;12.15;;
21814;SDS011;11069;48.988;8.450;2024-03-23T04:43:27;15.00;;;11.77;;
21814;SDS011;11069;48.988;8.450;2024-03-23T04:45:53;15.48;;;12.32;;
21814;SDS011;11069;48.988;8.450;2024-03-23T04:48:20;15.98;;;12.00;;
21814;SDS011;11069;48.988;8.450;2024-03-23T04:50:47;14.60;;;11.18;;
21814;SDS011;11069;48.988;8.450;2024-03-23T04:53:14;12.68;;;10.57;;
21814;SDS011;11069;48.988;8.450;2024-03-23T04:55:40;16.33;;;11.70;;
21814;SDS011;11069;48.988;8.450;2024-03-23T04:58:06;15.32;;;11.95;;
21814;SDS011;11069;48.988;8.450;2024-03-23T05:00:32;15.18;;;11.52;;
21814;SDS011;11069;48.988;8.450;2024-03-23T05:02:57;15.20;;;11.57;;
21814;SDS011;11069;48.988;8.450;2024-03-23T05:05:23;13.48;;;11.18;;
21814;SDS011;11069;48.988;8.450;2024-03-23T05:07:48;15.63;;;11.50;;
21814;SDS011;11069;48.988;8.450;2024-03-23T05:10:14;13.43;;;11.27;;
21814;SDS011;11069;48.988;8.450;2024-03-23T05:12:40;14.80;;;11.73;;
21814;SDS011;11069;48.988;8.450;2024-03-23T05:15:05;14.02;;;10.88;;
21814;SDS011;11069;48.988;8.450;2024-03-23T05:17:32;15.25;;;11.20;;
21814;SDS011;11069;48.988;8.450;2024-03-23T05:19:58;10.55;;;9.23;;
21814;SDS011;11069;48.988;8.450;2024-03-23T05:22:24;10.80;;;9.07;;
21814;SDS011;11069;48.988;8.450;2024-03-23T05:24:50;8.77;;;7.63;;
21814;SDS011;11069;48.988;8.450;2024-03-23T05:27:15;7.03;;;6.28;;
21814;SDS011;11069;48.988;8.450;2024-03-23T05:29:41;6.50;;;5.28;;
21814;SDS011;11069;48.988;8.450;2024-03-23T05:32:07;5.82;;;4.10;;
21814;SDS011;11069;48.988;8.450;2024-03-23T05:34:32;6.43;;;4.32;;
21814;SDS011;11069;48.988;8.450;2024-03-23T05:36:58;5.13;;;3.75;;
21814;SDS011;11069;48.988;8.450;2024-03-23T05:39:24;2.47;;;2.10;;
21814;SDS011;11069;48.988;8.450;2024-03-23T05:41:49;2.15;;;1.95;;
21814;SDS011;11069;48.988;8.450;2024-03-23T05:44:16;3.05;;;1.70;;
21814;SDS011;11069;48.988;8.450;2024-03-23T05:46:41;3.50;;;1.50;;
21814;SDS011;11069;48.988;8.450;2024-03-23T05:49:07;1.10;;;1.00;;
21814;SDS011;11069;48.988;8.450;2024-03-23T05:51:33;1.48;;;1.38;;
21814;SDS011;11069;48.988;8.450;2024-03-23T05:53:58;1.23;;;1.13;;
21814;SDS011;11069;48.988;8.450;2024-03-23T05:56:24;1.27;;;1.17;;
21814;SDS011;11069;48.988;8.450;2024-03-23T05:58:51;1.40;;;1.30;;
21814;SDS011;11069;48.988;8.450;2024-03-23T06:01:16;1.48;;;1.05;;
21814;SDS011;11069;48.988;8.450;2024-03-23T06:03:42;1.27;;;1.17;;
21814;SDS011;11069;48.988;8.450;2024-03-23T06:06:08;1.20;;;1.10;;
21814;SDS011;11069;48.988;8.450;2024-03-23T06:08:36;1.27;;;1.17;;
21814;SDS011;11069;48.988;8.450;2024-03-23T06:11:03;1.00;;;0.98;;
21814;SDS011;11069;48.988;8.450;2024-03-23T06:13:29;2.55;;;1.00;;
21814;SDS011;11069;48.988;8.450;2024-03-23T06:15:55;1.13;;;1.00;;
21814;SDS011;11069;48.988;8.450;2024-03-23T06:18:21;1.27;;;1.05;;
21814;SDS011;11069;48.988;8.450;2024-03-23T06:20:47;0.90;;;0.90;;
21814;SDS011;11069;48.988;8.450;2024-03-23T06:23:12;1.20;;;1.10;;
21814;SDS011;11069;48.988;8.450;2024-03-23T06:25:39;0.70;;;0.70;;
21814;SDS011;11069;48.988;8.450;2024-03-23T06:28:05;1.05;;;0.80;;
21814;SDS011;11069;48.988;8.450;2024-03-23T06:30:31;0.90;;;0.90;;
21814;SDS011;11069;48.988;8.450;2024-03-23T06:32:57;1.00;;;0.90;;
21814;SDS011;11069;48.988;8.450;2024-03-23T06:35:22;0.77;;;0.77;;
21814;SDS011;11069;48.988;8.450;2024-03-23T06:37:48;1.02;;;0.80;;
21814;SDS011;11069;48.988;8.450;2024-03-23T06:40:14;0.98;;;0.88;;
21814;SDS011;11069;48.988;8.450;2024-03-23T06:42:39;1.10;;;0.93;;
21814;SDS011;11069;48.988;8.450;2024-03-23T06:45:05;0.80;;;0.80;;
21814;SDS011;11069;48.988;8.450;2024-03-23T06:47:31;0.80;;;0.80;;
21814;SDS011;11069;48.988;8.450;2024-03-23T06:49:58;0.77;;;0.77;;
21814;SDS011;11069;48.988;8.450;2024-03-23T06:52:26;1.00;;;1.00;;
21814;SDS011;11069;48.988;8.450;2024-03-23T06:54:53;0.80;;;0.80;;
21814;SDS011;11069;48.988;8.450;2024-03-23T06:57:18;0.70;;;0.70;;
21814;SDS011;11069;48.988;8.450;2024-03-23T06:59:44;1.02;;;0.90;;
21814;SDS011;11069;48.988;8.450;2024-03-23T07:02:09;0.75;;;0.75;;
21814;SDS011;11069;48.988;8.450;2024-03-23T07:04:35;0.70;;;0.70;;
21814;SDS011;11069;48.988;8.450;2024-03-23T07:07:01;0.73;;;0.73;;
21814;SDS011;11069;48.988;8.450;2024-03-23T07:09:28;0.70;;;0.70;;
21814;SDS011;11069;48.988;8.450;2024-03-23T07:11:54;1.50;;;0.68;;
21814;SDS011;11069;48.988;8.450;2024-03-23T07:14:21;0.45;;;0.45;;
21814;SDS011;11069;48.988;8.450;2024-03-23T07:16:47;0.65;;;0.65;;
21814;SDS011;11069;48.988;8.450;2024-03-23T07:19:14;0.50;;;0.50;;
21814;SDS011;11069;48.988;8.450;2024-03-23T07:21:41;3.17;;;0.52;;
21814;SDS011;11069;48.988;8.450;2024-03-23T07:24:10;0.50;;;0.50;;
21814;SDS011;11069;48.988;8.450;2024-03-23T07:26:36;1.20;;;0.45;;
21814;SDS011;11069;48.988;8.450;2024-03-23T07:29:05;0.40;;;0.40;;
21814;SDS011;11069;48.988;8.450;2024-03-23T07:31:31;1.10;;;0.47;;
21814;SDS011;11069;48.988;8.450;2024-03-23T07:33:57;1.73;;;0.40;;
21814;SDS011;11069;48.988;8.450;2024-03-23T07:36:22;0.40;;;0.40;;
21814;SDS011;11069;48.988;8.450;2024-03-23T07:38:48;0.45;;;0.45;;
21814;SDS011;11069;48.988;8.450;2024-03-23T07:41:17;0.95;;;0.60;;
21814;SDS011;11069;48.988;8.450;2024-03-23T07:43:47;0.43;;;0.43;;
21814;SDS011;11069;48.988;8.450;2024-03-23T07:46:13;0.50;;;0.50;;
21814;SDS011;11069;48.988;8.450;2024-03-23T07:48:39;0.70;;;0.57;;
21814;SDS011;11069;48.988;8.450;2024-03-23T07:51:13;0.77;;;0.60;;
21814;SDS011;11069;48.988;8.450;2024-03-23T07:53:44;0.60;;;0.60;;
21814;SDS011;11069;48.988;8.450;2024-03-23T07:56:13;0.60;;;0.60;;
21814;SDS011;11069;48.988;8.450;2024-03-23T07:58:40;0.57;;;0.57;;
21814;SDS011;11069;48.988;8.450;2024-03-23T08:01:06;0.70;;;0.70;;
21814;SDS011;11069;48.988;8.450;2024-03-23T08:03:33;1.45;;;0.88;;
21814;SDS011;11069;48.988;8.450;2024-03-23T08:06:06;0.75;;;0.75;;
21814;SDS011;11069;48.988;8.450;2024-03-23T08:08:33;0.80;;;0.80;;
21814;SDS011;11069;48.988;8.450;2024-03-23T08:11:02;1.05;;;0.70;;
21814;SDS011;11069;48.988;8.450;2024-03-23T08:13:31;0.90;;;0.70;;
21814;SDS011;11069;48.988;8.450;2024-03-23T08:15:57;1.10;;;1.00;;
21814;SDS011;11069;48.988;8.450;2024-03-23T08:18:24;1.42;;;0.90;;
21814;SDS011;11069;48.988;8.450;2024-03-23T08:21:03;1.80;;;1.10;;
21814;SDS011;11069;48.988;8.450;2024-03-23T08:23:30;5.88;;;1.70;;
21814;SDS011;11069;48.988;8.450;2024-03-23T08:25:59;3.22;;;1.70;;
21814;SDS011;11069;48.988;8.450;2024-03-23T08:28:28;3.03;;;1.50;;
21814;SDS011;11069;48.988;8.450;2024-03-23T08:30:54;5.85;;;2.08;;
21814;SDS011;11069;48.988;8.450;2024-03-23T08:33:20;4.55;;;1.80;;
21814;SDS011;11069;48.988;8.450;2024-03-23T08:35:56;8.15;;;2.58;;
21814;SDS011;11069;48.988;8.450;2024-03-23T08:38:24;4.93;;;2.20;;
21814;SDS011;11069;48.988;8.450;2024-03-23T08:43:29;6.45;;;2.70;;
21814;SDS011;11069;48.988;8.450;2024-03-23T08:46:06;7.65;;;2.65;;
21814;SDS011;11069;48.988;8.450;2024-03-23T08:48:34;6.65;;;2.67;;
21814;SDS011;11069;48.988;8.450;2024-03-23T08:51:04;4.78;;;2.80;;
21814;SDS011;11069;48.988;8.450;2024-03-23T08:53:30;6.78;;;2.55;;
21814;SDS011;11069;48.988;8.450;2024-03-23T08:55:56;6.70;;;2.75;;
21814;SDS011;11069;48.988;8.450;2024-03-23T08:58:25;6.47;;;2.80;;
21814;SDS011;11069;48.988;8.450;2024-03-23T09:00:52;8.32;;;2.95;;
21814;SDS011;11069;48.988;8.450;2024-03-23T09:03:22;4.33;;;2.43;;
21814;SDS011;11069;48.988;8.450;2024-03-23T09:05:49;11.88;;;2.83;;
21814;SDS011;11069;48.988;8.450;2024-03-23T09:08:15;8.45;;;2.92;;
21814;SDS011;11069;48.988;8.450;2024-03-23T09:10:41;4.88;;;2.42;;
21814;SDS011;11069;48.988;8.450;2024-03-23T09:13:07;7.47;;;2.60;;
21814;SDS011;11069;48.988;8.450;2024-03-23T09:15:34;7.32;;;2.50;;
21814;SDS011;11069;48.988;8.450;2024-03-23T09:18:02;4.63;;;2.20;;
21814;SDS011;11069;48.988;8.450;2024-03-23T09:20:28;6.25;;;2.50;;
21814;SDS011;11069;48.988;8.450;2024-03-23T09:22:54;7.50;;;2.60;;
21814;SDS011;11069;48.988;8.450;2024-03-23T09:25:19;6.20;;;2.70;;
21814;SDS011;11069;48.988;8.450;2024-03-23T09:27:46;7.10;;;3.00;;
21814;SDS011;11069;48.988;8.450;2024-03-23T09:30:12;7.45;;;3.13;;
21814;SDS011;11069;48.988;8.450;2024-03-23T09:32:39;8.30;;;2.80;;
21814;SDS011;11069;48.988;8.450;2024-03-23T09:35:06;6.13;;;2.38;;
21814;SDS011;11069;48.988;8.450;2024-03-23T09:37:32;8.13;;;3.40;;
21814;SDS011;11069;48.988;8.450;2024-03-23T09:39:57;10.23;;;3.05;;
21814;SDS011;11069;48.988;8.450;2024-03-23T09:42:23;7.50;;;3.00;;
21814;SDS011;11069;48.988;8.450;2024-03-23T09:44:49;10.50;;;3.17;;
21814;SDS011;11069;48.988;8.450;2024-03-23T09:47:16;6.40;;;2.85;;
21814;SDS011;11069;48.988;8.450;2024-03-23T09:49:42;9.27;;;3.10;;
21814;SDS011;11069;48.988;8.450;2024-03-23T09:52:08;8.77;;;3.28;;
21814;SDS011;11069;48.988;8.450;2024-03-23T09:54:34;6.32;;;3.00;;
21814;SDS011;11069;48.988;8.450;2024-03-23T09:57:00;16.73;;;7.28;;
21814;SDS011;11069;48.988;8.450;2024-03-23T09:59:26;14.27;;;5.00;;
21814;SDS011;11069;48.988;8.450;2024-03-23T10:01:52;13.48;;;6.43;;
21814;SDS011;11069;48.988;8.450;2024-03-23T10:07:10;7.43;;;4.15;;
21814;SDS011;11069;48.988;8.450;2024-03-23T10:09:39;7.50;;;3.90;;
21814;SDS011;11069;48.988;8.450;2024-03-23T10:12:09;11.35;;;4.57;;
21814;SDS011;11069;48.988;8.450;2024-03-23T10:14:39;9.10;;;4.90;;
21814;SDS011;11069;48.988;8.450;2024-03-23T10:17:15;8.43;;;5.40;;
21814;SDS011;11069;48.988;8.450;2024-03-23T10:22:14;8.43;;;5.63;;
21814;SDS011;11069;48.988;8.450;2024-03-23T10:24:54;10.82;;;6.07;;
21814;SDS011;11069;48.988;8.450;2024-03-23T10:27:35;13.40;;;6.50;;
21814;SDS011;11069;48.988;8.450;2024-03-23T10:30:10;11.88;;;6.65;;
21814;SDS011;11069;48.988;8.450;2024-03-23T10:32:38;10.68;;;6.88;;
21814;SDS011;11069;48.988;8.450;2024-03-23T10:35:19;13.90;;;6.80;;
21814;SDS011;11069;48.988;8.450;2024-03-23T10:37:47;12.13;;;7.05;;
21814;SDS011;11069;48.988;8.450;2024-03-23T10:40:14;13.02;;;6.90;;
21814;SDS011;11069;48.988;8.450;2024-03-23T10:42:40;9.70;;;6.32;;
21814;SDS011;11069;48.988;8.450;2024-03-23T10:45:06;13.55;;;6.45;;
21814;SDS011;11069;48.988;8.450;2024-03-23T10:47:36;12.07;;;5.68;;
21814;SDS011;11069;48.988;8.450;2024-03-23T10:50:05;11.88;;;5.13;;
21814;SDS011;11069;48.988;8.450;2024-03-23T10:52:34;7.93;;;4.40;;
21814;SDS011;11069;48.988;8.450;2024-03-23T10:55:01;7.40;;;3.72;;
21814;SDS011;11069;48.988;8.450;2024-03-23T10:57:50;5.03;;;2.90;;
21814;SDS011;11069;48.988;8.450;2024-03-23T11:00:19;6.55;;;3.15;;
21814;SDS011;11069;48.988;8.450;2024-03-23T11:02:47;4.03;;;2.80;;
21814;SDS011;11069;48.988;8.450;2024-03-23T11:07:51;5.25;;;3.10;;
21814;SDS011;11069;48.988;8.450;2024-03-23T11:10:28;6.15;;;3.10;;
21814;SDS011;11069;48.988;8.450;2024-03-23T11:12:56;5.57;;;3.30;;
21814;SDS011;11069;48.988;8.450;2024-03-23T11:15:22;6.07;;;2.90;;
21814;SDS011;11069;48.988;8.450;2024-03-23T11:18:07;6.88;;;3.25;;
21814;SDS011;11069;48.988;8.450;2024-03-23T11:20:34;5.13;;;2.63;;
21814;SDS011;11069;48.988;8.450;2024-03-23T11:23:00;5.68;;;3.10;;
21814;SDS011;11069;48.988;8.450;2024-03-23T11:25:26;7.22;;;2.80;;
21814;SDS011;11069;48.988;8.450;2024-03-23T11:27:54;6.47;;;2.75;;
21814;SDS011;11069;48.988;8.450;2024-03-23T11:30:23;3.85;;;2.20;;
21814;SDS011;11069;48.988;8.450;2024-03-23T11:32:50;6.75;;;3.00;;
21814;SDS011;11069;48.988;8.450;2024-03-23T11:35:25;6.90;;;2.70;;
21814;SDS011;11069;48.988;8.450;2024-03-23T11:40:31;5.85;;;3.03;;
21814;SDS011;11069;48.988;8.450;2024-03-23T11:43:11;5.63;;;2.63;;
21814;SDS011;11069;48.988;8.450;2024-03-23T11:48:09;5.97;;;2.65;;
21814;SDS011;11069;48.988;8.450;2024-03-23T11:50:45;5.13;;;2.42;;
21814;SDS011;11069;48.988;8.450;2024-03-23T11:58:14;7.47;;;3.60;;
21814;SDS011;11069;48.988;8.450;2024-03-23T12:00:41;10.75;;;3.78;;
21814;SDS011;11069;48.988;8.450;2024-03-23T12:03:07;6.95;;;3.30;;
21814;SDS011;11069;48.988;8.450;2024-03-23T12:05:33;6.20;;;3.25;;
21814;SDS011;11069;48.988;8.450;2024-03-23T12:08:15;8.48;;;3.25;;
21814;SDS011;11069;48.988;8.450;2024-03-23T12:10:46;6.75;;;3.60;;
21814;SDS011;11069;48.988;8.450;2024-03-23T12:13:20;7.15;;;3.40;;
21814;SDS011;11069;48.988;8.450;2024-03-23T12:15:47;11.02;;;3.70;;
21814;SDS011;11069;48.988;8.450;2024-03-23T12:18:16;8.90;;;3.72;;
21814;SDS011;11069;48.988;8.450;2024-03-23T12:20:44;6.15;;;2.97;;
21814;SDS011;11069;48.988;8.450;2024-03-23T12:23:11;9.57;;;3.53;;
21814;SDS011;11069;48.988;8.450;2024-03-23T12:25:38;8.85;;;2.90;;
21814;SDS011;11069;48.988;8.450;2024-03-23T12:28:04;8.10;;;2.92;;
21814;SDS011;11069;48.988;8.450;2024-03-23T12:30:33;7.70;;;2.72;;
21814;SDS011;11069;48.988;8.450;2024-03-23T12:33:00;7.20;;;2.97;;
21814;SDS011;11069;48.988;8.450;2024-03-23T12:35:26;11.00;;;3.05;;
21814;SDS011;11069;48.988;8.450;2024-03-23T12:37:51;7.47;;;2.83;;
21814;SDS011;11069;48.988;8.450;2024-03-23T12:40:17;10.93;;;3.90;;
21814;SDS011;11069;48.988;8.450;2024-03-23T12:42:43;10.68;;;3.45;;
21814;SDS011;11069;48.988;8.450;2024-03-23T12:45:08;7.88;;;2.78;;
21814;SDS011;11069;48.988;8.450;2024-03-23T12:47:34;9.52;;;3.42;;
21814;SDS011;11069;48.988;8.450;2024-03-23T12:49:59;10.45;;;3.10;;
21814;SDS011;11069;48.988;8.450;2024-03-23T12:52:25;8.30;;;2.78;;
21814;SDS011;11069;48.988;8.450;2024-03-23T12:54:56;8.18;;;2.60;;
21814;SDS011;11069;48.988;8.450;2024-03-23T12:57:27;9.57;;;3.05;;
21814;SDS011;11069;48.988;8.450;2024-03-23T12:59:53;6.55;;;2.08;;
21814;SDS011;11069;48.988;8.450;2024-03-23T13:02:22;5.63;;;1.70;;
21814;SDS011;11069;48.988;8.450;2024-03-23T13:04:51;7.20;;;1.23;;
21814;SDS011;11069;48.988;8.450;2024-03-23T13:07:18;3.77;;;1.10;;
21814;SDS011;11069;48.988;8.450;2024-03-23T13:09:44;4.75;;;1.38;;
21814;SDS011;11069;48.988;8.450;2024-03-23T13:12:10;5.85;;;1.50;;
21814;SDS011;11069;48.988;8.450;2024-03-23T13:14:39;4.47;;;1.45;;
21814;SDS011;11069;48.988;8.450;2024-03-23T13:17:08;3.97;;;1.30;;
21814;SDS011;11069;48.988;8.450;2024-03-23T13:19:33;3.33;;;1.27;;
21814;SDS011;11069;48.988;8.450;2024-03-23T13:21:59;1.45;;;1.10;;
21814;SDS011;11069;48.988;8.450;2024-03-23T13:24:26;3.05;;;1.25;;
21814;SDS011;11069;48.988;8.450;2024-03-23T13:26:53;1.85;;;1.10;;
21814;SDS011;11069;48.988;8.450;2024-03-23T13:29:19;3.53;;;1.25;;
21814;SDS011;11069;48.988;8.450;2024-03-23T13:31:46;2.95;;;1.20;;
21814;SDS011;11069;48.988;8.450;2024-03-23T13:34:11;3.47;;;0.95;;
21814;SDS011;11069;48.988;8.450;2024-03-23T13:36:39;4.65;;;1.00;;
21814;SDS011;11069;48.988;8.450;2024-03-23T13:39:06;1.88;;;0.75;;
21814;SDS011;11069;48.988;8.450;2024-03-23T13:41:45;4.78;;;1.02;;
21814;SDS011;11069;48.988;8.450;2024-03-23T13:44:11;4.35;;;1.13;;
21814;SDS011;11069;48.988;8.450;2024-03-23T13:46:38;3.33;;;1.27;;
21814;SDS011;11069;48.988;8.450;2024-03-23T13:49:04;3.10;;;1.45;;
21814;SDS011;11069;48.988;8.450;2024-03-23T13:51:31;1.52;;;0.90;;
21814;SDS011;11069;48.988;8.450;2024-03-23T13:53:57;4.28;;;1.20;;
21814;SDS011;11069;48.988;8.450;2024-03-23T13:56:25;3.47;;;1.20;;
21814;SDS011;11069;48.988;8.450;2024-03-23T13:58:53;3.30;;;1.20;;
21814;SDS011;11069;48.988;8.450;2024-03-23T14:01:19;3.42;;;1.13;;
21814;SDS011;11069;48.988;8.450;2024-03-23T14:03:44;2.92;;;1.20;;
21814;SDS011;11069;48.988;8.450;2024-03-23T14:06:10;4.13;;;1.10;;
21814;SDS011;11069;48.988;8.450;2024-03-23T14:08:36;3.10;;;1.42;;
21814;SDS011;11069;48.988;8.450;2024-03-23T14:11:06;1.75;;;0.80;;
21814;SDS011;11069;48.988;8.450;2024-03-23T14:13:33;4.35;;;1.40;;
21814;SDS011;11069;48.988;8.450;2024-03-23T14:15:59;1.48;;;0.93;;
21814;SDS011;11069;48.988;8.450;2024-03-23T14:18:25;3.33;;;0.90;;
21814;SDS011;11069;48.988;8.450;2024-03-23T14:20:51;1.90;;;1.00;;
21814;SDS011;11069;48.988;8.450;2024-03-23T14:23:18;3.63;;;1.00;;
21814;SDS011;11069;48.988;8.450;2024-03-23T14:25:44;2.13;;;1.00;;
21814;SDS011;11069;48.988;8.450;2024-03-23T14:28:10;2.40;;;1.00;;
21814;SDS011;11069;48.988;8.450;2024-03-23T14:30:39;0.80;;;0.70;;
21814;SDS011;11069;48.988;8.450;2024-03-23T14:33:08;1.25;;;0.88;;
21814;SDS011;11069;48.988;8.450;2024-03-23T14:35:34;1.65;;;0.70;;
21814;SDS011;11069;48.988;8.450;2024-03-23T14:38:01;0.85;;;0.68;;
21814;SDS011;11069;48.988;8.450;2024-03-23T14:40:27;3.38;;;0.88;;
21814;SDS011;11069;48.988;8.450;2024-03-23T14:42:53;1.65;;;0.65;;
21814;SDS011;11069;48.988;8.450;2024-03-23T14:45:20;1.23;;;0.60;;
21814;SDS011;11069;48.988;8.450;2024-03-23T14:47:46;1.08;;;0.77;;
21814;SDS011;11069;48.988;8.450;2024-03-23T14:50:12;1.95;;;0.90;;
21814;SDS011;11069;48.988;8.450;2024-03-23T14:52:40;3.53;;;0.80;;
21814;SDS011;11069;48.988;8.450;2024-03-23T14:55:12;3.03;;;0.80;;
21814;SDS011;11069;48.988;8.450;2024-03-23T14:57:38;2.03;;;0.63;;
21814;SDS011;11069;48.988;8.450;2024-03-23T15:00:08;2.45;;;0.80;;
21814;SDS011;11069;48.988;8.450;2024-03-23T15:02:38;3.08;;;0.93;;
21814;SDS011;11069;48.988;8.450;2024-03-23T15:05:06;2.10;;;1.00;;
21814;SDS011;11069;48.988;8.450;2024-03-23T15:07:35;3.40;;;0.90;;
21814;SDS011;11069;48.988;8.450;2024-03-23T15:10:03;3.50;;;0.98;;
21814;SDS011;11069;48.988;8.450;2024-03-23T15:12:30;4.20;;;1.63;;
21814;SDS011;11069;48.988;8.450;2024-03-23T15:14:57;1.40;;;0.90;;
21814;SDS011;11069;48.988;8.450;2024-03-23T15:17:23;2.25;;;1.08;;
21814;SDS011;11069;48.988;8.450;2024-03-23T15:19:49;2.67;;;1.00;;
21814;SDS011;11069;48.988;8.450;2024-03-23T15:22:14;3.45;;;1.17;;
21814;SDS011;11069;48.988;8.450;2024-03-23T15:24:40;3.08;;;0.95;;
21814;SDS011;11069;48.988;8.450;2024-03-23T15:27:06;3.70;;;1.52;;
21814;SDS011;11069;48.988;8.450;2024-03-23T15:29:33;3.35;;;1.52;;
21814;SDS011;11069;48.988;8.450;2024-03-23T15:31:59;3.25;;;1.30;;
21814;SDS011;11069;48.988;8.450;2024-03-23T15:34:25;3.28;;;1.30;;
21814;SDS011;11069;48.988;8.450;2024-03-23T15:36:50;1.75;;;1.00;;
21814;SDS011;11069;48.988;8.450;2024-03-23T15:39:16;4.30;;;1.25;;
21814;SDS011;11069;48.988;8.450;2024-03-23T15:41:45;3.75;;;1.25;;
21814;SDS011;11069;48.988;8.450;2024-03-23T15:44:11;3.42;;;1.10;;
21814;SDS011;11069;48.988;8.450;2024-03-23T15:46:37;2.67;;;1.38;;
21814;SDS011;11069;48.988;8.450;2024-03-23T15:49:03;1.17;;;1.00;;
21814;SDS011;11069;48.988;8.450;2024-03-23T15:51:29;2.70;;;1.10;;
21814;SDS011;11069;48.988;8.450;2024-03-23T15:54:00;4.75;;;1.20;;
21814;SDS011;11069;48.988;8.450;2024-03-23T15:56:26;2.63;;;1.40;;